sensor_id;sensor_type;location;lat;lon;timestamp;pressure;altitude;pressure_sealevel;temperature;humidity
52469;BME280;38381;53.688;10.776;2023-02-25T00:03:54;99336.25;;;2.52;92.67
52469;BME280;38381;53.688;10.776;2023-02-25T00:08:55;99347.28;;;2.51;92.88
52469;BME280;38381;53.688;10.776;2023-02-25T00:13:55;99347.97;;;2.41;93.03
52469;BME280;38381;53.688;10.776;2023-02-25T00:18:57;99342.31;;;2.59;93.00
52469;BME280;38381;53.688;10.776;2023-02-25T00:23:58;99357.28;;;2.36;93.28
52469;BME280;38381;53.688;10.776;2023-02-25T00:29:01;99359.09;;;2.43;93.05
52469;BME280;38381;53.688;10.776;2023-02-25T00:34:05;99376.91;;;2.37;92.70
52469;BME280;38381;53.688;10.776;2023-02-25T00:39:05;99379.47;;;2.37;92.53
52469;BME280;38381;53.688;10.776;2023-02-25T00:44:06;99388.03;;;2.39;93.03
52469;BME280;38381;53.688;10.776;2023-02-25T00:49:07;99394.84;;;2.38;92.66
52469;BME280;38381;53.688;10.776;2023-02-25T00:54:07;99392.22;;;2.34;93.39
52469;BME280;38381;53.688;10.776;2023-02-25T00:59:08;99397.25;;;2.29;92.89
52469;BME280;38381;53.688;10.776;2023-02-25T01:04:08;99400.75;;;2.34;93.20
52469;BME280;38381;53.688;10.776;2023-02-25T01:09:09;99400.72;;;2.33;92.67
52469;BME280;38381;53.688;10.776;2023-02-25T01:14:22;99394.88;;;2.40;92.27
52469;BME280;38381;53.688;10.776;2023-02-25T01:19:24;99401.56;;;2.33;92.93
52469;BME280;38381;53.688;10.776;2023-02-25T01:24:30;99411.91;;;2.39;92.34
52469;BME280;38381;53.688;10.776;2023-02-25T01:29:34;99421.03;;;2.24;92.47
52469;BME280;38381;53.688;10.776;2023-02-25T01:34:37;99419.25;;;2.21;92.15
52469;BME280;38381;53.688;10.776;2023-02-25T01:39:39;99430.59;;;2.34;90.99
52469;BME280;38381;53.688;10.776;2023-02-25T01:45:32;99439.22;;;2.39;90.77
52469;BME280;38381;53.688;10.776;2023-02-25T01:50:32;99441.69;;;2.34;90.58
52469;BME280;38381;53.688;10.776;2023-02-25T01:55:34;99437.53;;;2.41;90.18
52469;BME280;38381;53.688;10.776;2023-02-25T02:00:36;99456.94;;;2.28;90.78
52469;BME280;38381;53.688;10.776;2023-02-25T02:05:44;99452.72;;;2.32;90.41
52469;BME280;38381;53.688;10.776;2023-02-25T02:10:47;99470.66;;;2.32;90.83
52469;BME280;38381;53.688;10.776;2023-02-25T02:15:57;99469.91;;;2.39;90.37
52469;BME280;38381;53.688;10.776;2023-02-25T02:21:04;99476.47;;;2.25;90.36
52469;BME280;38381;53.688;10.776;2023-02-25T02:31:57;99497.13;;;2.34;89.68
52469;BME280;38381;53.688;10.776;2023-02-25T02:42:27;99499.31;;;2.17;89.83
52469;BME280;38381;53.688;10.776;2023-02-25T02:47:31;99506.09;;;2.15;88.77
52469;BME280;38381;53.688;10.776;2023-02-25T02:52:39;99515.72;;;2.27;87.88
52469;BME280;38381;53.688;10.776;2023-02-25T02:57:41;99528.09;;;2.05;88.18
52469;BME280;38381;53.688;10.776;2023-02-25T03:02:51;99538.38;;;2.08;86.04
52469;BME280;38381;53.688;10.776;2023-02-25T03:08:00;99536.69;;;2.10;86.21
52469;BME280;38381;53.688;10.776;2023-02-25T03:13:03;99549.56;;;2.13;86.64
52469;BME280;38381;53.688;10.776;2023-02-25T03:18:08;99549.28;;;1.99;85.65
52469;BME280;38381;53.688;10.776;2023-02-25T03:23:28;99570.66;;;2.03;85.29
52469;BME280;38381;53.688;10.776;2023-02-25T03:28:31;99565.69;;;2.09;84.05
52469;BME280;38381;53.688;10.776;2023-02-25T03:38:33;99583.72;;;2.17;83.61
52469;BME280;38381;53.688;10.776;2023-02-25T03:43:41;99584.53;;;2.14;84.38
52469;BME280;38381;53.688;10.776;2023-02-25T03:48:43;99588.69;;;2.09;84.48
52469;BME280;38381;53.688;10.776;2023-02-25T03:53:44;99598.66;;;1.98;84.82
52469;BME280;38381;53.688;10.776;2023-02-25T03:58:44;99608.91;;;1.98;83.90
52469;BME280;38381;53.688;10.776;2023-02-25T04:03:45;99618.97;;;1.91;84.19
52469;BME280;38381;53.688;10.776;2023-02-25T04:08:45;99625.53;;;1.79;83.64
52469;BME280;38381;53.688;10.776;2023-02-25T04:13:46;99638.78;;;1.99;81.65
52469;BME280;38381;53.688;10.776;2023-02-25T04:18:46;99641.81;;;1.83;81.68
52469;BME280;38381;53.688;10.776;2023-02-25T04:23:47;99653.22;;;1.97;82.10
52469;BME280;38381;53.688;10.776;2023-02-25T04:28:47;99662.53;;;1.95;81.54
52469;BME280;38381;53.688;10.776;2023-02-25T04:33:48;99665.28;;;2.03;82.19
52469;BME280;38381;53.688;10.776;2023-02-25T04:38:49;99675.38;;;1.97;82.35
52469;BME280;38381;53.688;10.776;2023-02-25T04:43:49;99664.25;;;1.96;82.70
52469;BME280;38381;53.688;10.776;2023-02-25T04:48:50;99686.00;;;1.79;83.55
52469;BME280;38381;53.688;10.776;2023-02-25T04:53:50;99680.19;;;1.86;83.37
52469;BME280;38381;53.688;10.776;2023-02-25T04:58:50;99674.88;;;1.77;83.97
52469;BME280;38381;53.688;10.776;2023-02-25T05:03:51;99677.50;;;1.80;83.88
52469;BME280;38381;53.688;10.776;2023-02-25T05:08:57;99689.22;;;1.72;84.50
52469;BME280;38381;53.688;10.776;2023-02-25T05:13:59;99687.25;;;1.96;84.58
52469;BME280;38381;53.688;10.776;2023-02-25T05:19:19;99695.88;;;2.00;84.88
52469;BME280;38381;53.688;10.776;2023-02-25T05:25:01;99695.13;;;1.69;86.28
52469;BME280;38381;53.688;10.776;2023-02-25T05:30:10;99706.00;;;1.60;87.99
52469;BME280;38381;53.688;10.776;2023-02-25T05:35:24;99728.31;;;1.66;88.15
52469;BME280;38381;53.688;10.776;2023-02-25T05:40:37;99736.88;;;1.36;89.67
52469;BME280;38381;53.688;10.776;2023-02-25T05:45:55;99747.25;;;1.43;91.41
52469;BME280;38381;53.688;10.776;2023-02-25T05:51:10;99761.09;;;1.51;91.56
52469;BME280;38381;53.688;10.776;2023-02-25T05:56:17;99762.53;;;1.39;91.68
52469;BME280;38381;53.688;10.776;2023-02-25T06:01:24;99767.34;;;1.30;92.86
52469;BME280;38381;53.688;10.776;2023-02-25T06:06:47;99781.88;;;1.31;92.34
52469;BME280;38381;53.688;10.776;2023-02-25T06:12:24;99791.69;;;1.17;93.22
52469;BME280;38381;53.688;10.776;2023-02-25T06:17:48;99800.16;;;1.16;92.29
52469;BME280;38381;53.688;10.776;2023-02-25T06:22:57;99823.69;;;1.06;93.21
52469;BME280;38381;53.688;10.776;2023-02-25T06:28:02;99821.56;;;1.20;92.19
52469;BME280;38381;53.688;10.776;2023-02-25T06:33:02;99841.03;;;1.16;91.68
52469;BME280;38381;53.688;10.776;2023-02-25T06:38:03;99843.44;;;1.12;91.05
52469;BME280;38381;53.688;10.776;2023-02-25T06:43:03;99857.31;;;1.20;91.50
52469;BME280;38381;53.688;10.776;2023-02-25T06:48:04;99859.06;;;1.21;91.69
52469;BME280;38381;53.688;10.776;2023-02-25T06:53:07;99877.63;;;1.15;92.70
52469;BME280;38381;53.688;10.776;2023-02-25T06:58:07;99880.56;;;1.00;94.13
52469;BME280;38381;53.688;10.776;2023-02-25T07:03:11;99897.19;;;1.15;93.46
52469;BME280;38381;53.688;10.776;2023-02-25T07:08:12;99903.09;;;1.14;94.15
52469;BME280;38381;53.688;10.776;2023-02-25T07:13:12;99917.50;;;1.12;94.81
52469;BME280;38381;53.688;10.776;2023-02-25T07:18:13;99917.63;;;1.16;95.02
52469;BME280;38381;53.688;10.776;2023-02-25T07:23:15;99921.44;;;1.00;94.40
52469;BME280;38381;53.688;10.776;2023-02-25T07:28:15;99928.75;;;1.17;93.66
52469;BME280;38381;53.688;10.776;2023-02-25T07:33:16;99927.47;;;1.04;93.58
52469;BME280;38381;53.688;10.776;2023-02-25T07:38:16;99935.56;;;1.18;93.20
52469;BME280;38381;53.688;10.776;2023-02-25T07:43:17;99935.88;;;1.27;92.25
52469;BME280;38381;53.688;10.776;2023-02-25T07:48:17;99947.06;;;1.32;92.11
52469;BME280;38381;53.688;10.776;2023-02-25T07:53:18;99949.22;;;1.47;91.53
52469;BME280;38381;53.688;10.776;2023-02-25T07:58:21;99962.84;;;1.46;90.95
52469;BME280;38381;53.688;10.776;2023-02-25T08:03:21;99984.91;;;1.44;88.62
52469;BME280;38381;53.688;10.776;2023-02-25T08:08:22;99996.28;;;1.54;88.32
52469;BME280;38381;53.688;10.776;2023-02-25T08:13:22;99998.50;;;1.43;88.48
52469;BME280;38381;53.688;10.776;2023-02-25T08:18:23;100005.34;;;1.17;88.83
52469;BME280;38381;53.688;10.776;2023-02-25T08:23:24;100005.63;;;0.99;89.74
52469;BME280;38381;53.688;10.776;2023-02-25T08:28:26;100019.38;;;1.03;90.80
52469;BME280;38381;53.688;10.776;2023-02-25T08:33:28;100023.84;;;1.10;91.23
52469;BME280;38381;53.688;10.776;2023-02-25T08:38:29;100043.16;;;1.02;90.29
52469;BME280;38381;53.688;10.776;2023-02-25T08:43:30;100047.94;;;1.18;90.42
52469;BME280;38381;53.688;10.776;2023-02-25T08:48:32;100048.72;;;1.43;90.39
52469;BME280;38381;53.688;10.776;2023-02-25T08:53:37;100058.28;;;1.48;88.96
52469;BME280;38381;53.688;10.776;2023-02-25T08:58:38;100064.16;;;1.46;86.13
52469;BME280;38381;53.688;10.776;2023-02-25T09:03:40;100073.66;;;1.50;85.31
52469;BME280;38381;53.688;10.776;2023-02-25T09:08:51;100080.28;;;1.70;83.83
52469;BME280;38381;53.688;10.776;2023-02-25T09:13:52;100086.03;;;1.92;85.02
52469;BME280;38381;53.688;10.776;2023-02-25T09:18:52;100099.53;;;1.88;87.07
52469;BME280;38381;53.688;10.776;2023-02-25T09:23:53;100107.88;;;1.80;87.73
52469;BME280;38381;53.688;10.776;2023-02-25T09:28:53;100123.41;;;1.87;88.16
52469;BME280;38381;53.688;10.776;2023-02-25T09:33:54;100143.97;;;1.64;90.02
52469;BME280;38381;53.688;10.776;2023-02-25T09:38:56;100141.75;;;1.48;92.14
52469;BME280;38381;53.688;10.776;2023-02-25T09:49:06;100161.34;;;1.74;92.29
52469;BME280;38381;53.688;10.776;2023-02-25T09:54:17;100169.38;;;1.59;92.67
52469;BME280;38381;53.688;10.776;2023-02-25T09:59:20;100176.38;;;1.65;91.75
52469;BME280;38381;53.688;10.776;2023-02-25T10:09:36;100210.75;;;1.48;92.03
52469;BME280;38381;53.688;10.776;2023-02-25T10:20:20;100229.22;;;1.40;91.89
52469;BME280;38381;53.688;10.776;2023-02-25T10:25:27;100232.91;;;1.49;90.86
52469;BME280;38381;53.688;10.776;2023-02-25T10:30:33;100234.88;;;1.56;90.31
52469;BME280;38381;53.688;10.776;2023-02-25T10:35:40;100243.25;;;1.52;87.78
52469;BME280;38381;53.688;10.776;2023-02-25T10:40:42;100260.63;;;1.62;87.72
52469;BME280;38381;53.688;10.776;2023-02-25T10:45:44;100258.72;;;1.82;88.00
52469;BME280;38381;53.688;10.776;2023-02-25T10:51:10;100265.03;;;1.92;86.39
52469;BME280;38381;53.688;10.776;2023-02-25T10:56:11;100267.84;;;1.99;85.84
52469;BME280;38381;53.688;10.776;2023-02-25T11:01:20;100281.44;;;1.98;85.62
52469;BME280;38381;53.688;10.776;2023-02-25T11:11:28;100289.50;;;2.09;85.00
52469;BME280;38381;53.688;10.776;2023-02-25T11:16:31;100292.53;;;2.25;84.05
52469;BME280;38381;53.688;10.776;2023-02-25T11:21:36;100298.50;;;2.24;82.41
52469;BME280;38381;53.688;10.776;2023-02-25T11:26:42;100304.91;;;2.12;81.10
52469;BME280;38381;53.688;10.776;2023-02-25T11:31:44;100310.13;;;1.90;77.81
52469;BME280;38381;53.688;10.776;2023-02-25T11:36:48;100324.56;;;1.88;75.78
52469;BME280;38381;53.688;10.776;2023-02-25T11:42:00;100326.94;;;2.07;74.60
52469;BME280;38381;53.688;10.776;2023-02-25T11:47:23;100337.16;;;2.07;73.37
52469;BME280;38381;53.688;10.776;2023-02-25T11:52:37;100347.31;;;2.30;73.12
52469;BME280;38381;53.688;10.776;2023-02-25T12:14:07;100365.25;;;2.57;70.53
52469;BME280;38381;53.688;10.776;2023-02-25T12:24:57;100376.66;;;2.41;70.11
52469;BME280;38381;53.688;10.776;2023-02-25T12:30:32;100376.16;;;2.51;69.09
52469;BME280;38381;53.688;10.776;2023-02-25T12:56:57;100428.78;;;2.69;66.21
52469;BME280;38381;53.688;10.776;2023-02-25T13:29:22;100446.81;;;2.99;62.48
52469;BME280;38381;53.688;10.776;2023-02-25T13:34:45;100440.34;;;3.10;65.36
52469;BME280;38381;53.688;10.776;2023-02-25T13:40:15;100451.94;;;3.26;65.16
52469;BME280;38381;53.688;10.776;2023-02-25T13:45:48;100461.81;;;3.14;64.36
52469;BME280;38381;53.688;10.776;2023-02-25T13:51:22;100471.69;;;3.01;63.59
52469;BME280;38381;53.688;10.776;2023-02-25T14:01:36;100468.53;;;2.85;64.92
52469;BME280;38381;53.688;10.776;2023-02-25T14:12:08;100491.06;;;2.93;66.25
52469;BME280;38381;53.688;10.776;2023-02-25T14:22:55;100502.19;;;3.21;62.36
52469;BME280;38381;53.688;10.776;2023-02-25T14:33:31;100530.94;;;2.61;63.71
52469;BME280;38381;53.688;10.776;2023-02-25T14:43:36;100551.97;;;2.52;65.36
52469;BME280;38381;53.688;10.776;2023-02-25T15:20:31;100608.41;;;2.10;64.82
52469;BME280;38381;53.688;10.776;2023-02-25T15:36:20;100637.47;;;2.12;63.76
52469;BME280;38381;53.688;10.776;2023-02-25T15:51:49;100658.84;;;1.92;63.49
52469;BME280;38381;53.688;10.776;2023-02-25T15:56:51;100663.97;;;1.92;63.05
52469;BME280;38381;53.688;10.776;2023-02-25T16:01:51;100662.69;;;1.80;63.54
52469;BME280;38381;53.688;10.776;2023-02-25T16:06:53;100679.88;;;1.85;64.37
52469;BME280;38381;53.688;10.776;2023-02-25T16:11:56;100677.94;;;1.79;65.68
52469;BME280;38381;53.688;10.776;2023-02-25T16:17:17;100683.13;;;1.80;66.64
52469;BME280;38381;53.688;10.776;2023-02-25T16:22:24;100699.59;;;1.66;68.26
52469;BME280;38381;53.688;10.776;2023-02-25T16:28:20;100710.75;;;1.68;69.65
52469;BME280;38381;53.688;10.776;2023-02-25T16:33:28;100721.66;;;1.64;69.73
52469;BME280;38381;53.688;10.776;2023-02-25T16:43:52;100723.97;;;1.58;70.81
52469;BME280;38381;53.688;10.776;2023-02-25T16:48:57;100732.31;;;1.54;70.43
52469;BME280;38381;53.688;10.776;2023-02-25T16:54:05;100739.34;;;1.59;70.87
52469;BME280;38381;53.688;10.776;2023-02-25T17:04:14;100766.69;;;1.22;72.50
52469;BME280;38381;53.688;10.776;2023-02-25T17:09:23;100792.44;;;0.89;80.55
52469;BME280;38381;53.688;10.776;2023-02-25T17:14:24;100822.59;;;0.60;82.68
52469;BME280;38381;53.688;10.776;2023-02-25T17:19:25;100806.81;;;0.51;82.67
52469;BME280;38381;53.688;10.776;2023-02-25T17:24:29;100794.50;;;0.42;81.84
52469;BME280;38381;53.688;10.776;2023-02-25T17:29:33;100803.28;;;0.47;79.47
52469;BME280;38381;53.688;10.776;2023-02-25T17:34:34;100803.63;;;0.37;80.82
52469;BME280;38381;53.688;10.776;2023-02-25T17:39:35;100826.28;;;0.49;79.85
52469;BME280;38381;53.688;10.776;2023-02-25T17:49:41;100831.75;;;0.38;83.92
52469;BME280;38381;53.688;10.776;2023-02-25T17:54:45;100841.00;;;0.36;82.51
52469;BME280;38381;53.688;10.776;2023-02-25T17:59:49;100840.00;;;0.33;80.65
52469;BME280;38381;53.688;10.776;2023-02-25T18:05:12;100845.75;;;0.47;79.37
52469;BME280;38381;53.688;10.776;2023-02-25T18:15:31;100868.97;;;0.51;78.55
52469;BME280;38381;53.688;10.776;2023-02-25T18:20:37;100876.66;;;0.35;78.31
52469;BME280;38381;53.688;10.776;2023-02-25T18:25:42;100890.78;;;0.28;79.06
52469;BME280;38381;53.688;10.776;2023-02-25T18:30:43;100882.41;;;0.31;79.46
52469;BME280;38381;53.688;10.776;2023-02-25T18:35:45;100892.53;;;0.29;78.86
52469;BME280;38381;53.688;10.776;2023-02-25T18:40:47;100903.47;;;0.27;78.91
52469;BME280;38381;53.688;10.776;2023-02-25T18:45:48;100911.88;;;0.42;78.05
52469;BME280;38381;53.688;10.776;2023-02-25T18:50:49;100914.41;;;0.42;78.70
52469;BME280;38381;53.688;10.776;2023-02-25T18:55:50;100911.56;;;0.36;78.91
52469;BME280;38381;53.688;10.776;2023-02-25T19:00:55;100910.78;;;0.37;79.16
52469;BME280;38381;53.688;10.776;2023-02-25T19:05:56;100915.06;;;0.38;78.93
52469;BME280;38381;53.688;10.776;2023-02-25T19:10:56;100917.47;;;0.35;79.38
52469;BME280;38381;53.688;10.776;2023-02-25T19:15:57;100930.63;;;0.26;78.83
52469;BME280;38381;53.688;10.776;2023-02-25T19:20:57;100927.22;;;0.26;79.28
52469;BME280;38381;53.688;10.776;2023-02-25T19:25:59;100939.50;;;0.16;80.45
52469;BME280;38381;53.688;10.776;2023-02-25T19:31:00;100936.22;;;0.19;79.81
52469;BME280;38381;53.688;10.776;2023-02-25T19:36:02;100945.72;;;0.22;80.89
52469;BME280;38381;53.688;10.776;2023-02-25T19:41:03;100948.91;;;0.17;80.49
52469;BME280;38381;53.688;10.776;2023-02-25T19:46:09;100963.72;;;0.25;80.92
52469;BME280;38381;53.688;10.776;2023-02-25T19:51:09;100973.03;;;0.08;80.89
52469;BME280;38381;53.688;10.776;2023-02-25T19:56:10;100975.84;;;0.12;81.03
52469;BME280;38381;53.688;10.776;2023-02-25T20:01:11;100988.75;;;-0.01;81.37
52469;BME280;38381;53.688;10.776;2023-02-25T20:06:12;100989.03;;;-0.11;81.96
52469;BME280;38381;53.688;10.776;2023-02-25T20:11:12;101004.59;;;-0.07;81.96
52469;BME280;38381;53.688;10.776;2023-02-25T20:16:13;101000.19;;;-0.26;83.02
52469;BME280;38381;53.688;10.776;2023-02-25T20:21:14;101011.88;;;-0.29;83.43
52469;BME280;38381;53.688;10.776;2023-02-25T20:26:15;101009.25;;;-0.31;84.58
52469;BME280;38381;53.688;10.776;2023-02-25T20:31:17;101018.56;;;-0.31;83.66
52469;BME280;38381;53.688;10.776;2023-02-25T20:36:30;101022.97;;;-0.29;84.87
52469;BME280;38381;53.688;10.776;2023-02-25T20:41:31;101021.53;;;-0.24;84.49
52469;BME280;38381;53.688;10.776;2023-02-25T20:46:32;101032.00;;;-0.34;84.24
52469;BME280;38381;53.688;10.776;2023-02-25T20:51:33;101031.00;;;-0.21;83.59
52469;BME280;38381;53.688;10.776;2023-02-25T20:56:34;101029.47;;;-0.34;84.11
52469;BME280;38381;53.688;10.776;2023-02-25T21:01:34;101037.44;;;-0.28;83.91
52469;BME280;38381;53.688;10.776;2023-02-25T21:06:35;101044.19;;;-0.45;82.88
52469;BME280;38381;53.688;10.776;2023-02-25T21:11:37;101049.59;;;-0.38;82.40
52469;BME280;38381;53.688;10.776;2023-02-25T21:16:37;101051.28;;;-0.39;82.56
52469;BME280;38381;53.688;10.776;2023-02-25T21:21:38;101056.38;;;-0.39;81.87
52469;BME280;38381;53.688;10.776;2023-02-25T21:26:38;101064.66;;;-0.43;80.83
52469;BME280;38381;53.688;10.776;2023-02-25T21:31:40;101073.94;;;-0.44;80.57
52469;BME280;38381;53.688;10.776;2023-02-25T21:36:40;101074.00;;;-0.27;80.93
52469;BME280;38381;53.688;10.776;2023-02-25T21:41:41;101090.25;;;-0.25;82.01
52469;BME280;38381;53.688;10.776;2023-02-25T21:46:41;101079.47;;;-0.36;82.67
52469;BME280;38381;53.688;10.776;2023-02-25T21:51:42;101091.78;;;-0.29;82.77
52469;BME280;38381;53.688;10.776;2023-02-25T21:56:43;101088.31;;;-0.29;82.40
52469;BME280;38381;53.688;10.776;2023-02-25T22:01:43;101092.47;;;-0.31;81.73
52469;BME280;38381;53.688;10.776;2023-02-25T22:06:44;101095.78;;;-0.17;80.23
52469;BME280;38381;53.688;10.776;2023-02-25T22:11:47;101108.19;;;-0.24;79.95
52469;BME280;38381;53.688;10.776;2023-02-25T22:16:48;101133.06;;;-0.19;79.92
52469;BME280;38381;53.688;10.776;2023-02-25T22:21:48;101137.00;;;-0.10;81.42
52469;BME280;38381;53.688;10.776;2023-02-25T22:26:49;101141.38;;;-0.07;82.72
52469;BME280;38381;53.688;10.776;2023-02-25T22:31:51;101148.59;;;0.00;83.91
52469;BME280;38381;53.688;10.776;2023-02-25T22:36:52;101161.50;;;0.03;84.17
52469;BME280;38381;53.688;10.776;2023-02-25T22:41:53;101164.03;;;0.03;84.23
52469;BME280;38381;53.688;10.776;2023-02-25T22:46:54;101168.91;;;-0.02;83.18
52469;BME280;38381;53.688;10.776;2023-02-25T22:51:54;101179.09;;;-0.02;80.35
52469;BME280;38381;53.688;10.776;2023-02-25T22:56:55;101178.38;;;0.01;78.54
52469;BME280;38381;53.688;10.776;2023-02-25T23:01:55;101184.28;;;0.00;77.11
52469;BME280;38381;53.688;10.776;2023-02-25T23:06:58;101190.34;;;0.02;76.30
52469;BME280;38381;53.688;10.776;2023-02-25T23:12:00;101201.50;;;0.04;75.54
52469;BME280;38381;53.688;10.776;2023-02-25T23:17:00;101204.06;;;0.04;75.81
52469;BME280;38381;53.688;10.776;2023-02-25T23:22:01;101213.31;;;0.02;76.24
52469;BME280;38381;53.688;10.776;2023-02-25T23:27:01;101218.66;;;0.07;74.85
52469;BME280;38381;53.688;10.776;2023-02-25T23:32:02;101215.38;;;0.09;76.13
52469;BME280;38381;53.688;10.776;2023-02-25T23:37:03;101222.25;;;0.10;76.16
52469;BME280;38381;53.688;10.776;2023-02-25T23:42:03;101239.06;;;0.07;75.93
52469;BME280;38381;53.688;10.776;2023-02-25T23:47:04;101247.91;;;0.13;76.65
52469;BME280;38381;53.688;10.776;2023-02-25T23:52:04;101250.13;;;0.07;73.82
52469;BME280;38381;53.688;10.776;2023-02-25T23:57:04;101258.31;;;0.16;73.74
